createdAt,value
2018-03-06T00:00:23.208Z,17.60
2018-03-06T00:01:23.197Z,16.70
2018-03-06T00:02:23.176Z,15.80
2018-03-06T00:03:23.145Z,16.30
2018-03-06T00:04:23.124Z,17.00
2018-03-06T00:05:23.100Z,16.40
2018-03-06T00:06:23.080Z,17.90
2018-03-06T00:07:23.065Z,15.60
2018-03-06T00:08:23.071Z,16.20
2018-03-06T00:09:23.017Z,16.90
2018-03-06T00:10:22.993Z,16.10
2018-03-06T00:11:22.972Z,15.80
2018-03-06T00:12:22.957Z,18.90
2018-03-06T00:13:22.932Z,16.20
2018-03-06T00:14:22.948Z,16.50
2018-03-06T00:15:22.887Z,15.50
2018-03-06T00:16:22.870Z,17.40
2018-03-06T00:17:22.842Z,16.60
2018-03-06T00:18:22.825Z,15.60
2018-03-06T00:19:22.803Z,17.40
2018-03-06T00:20:22.780Z,18.40
2018-03-06T00:21:22.757Z,16.10
2018-03-06T00:22:22.738Z,15.60
2018-03-06T00:23:22.715Z,17.60
2018-03-06T00:24:22.739Z,16.30
2018-03-06T00:25:22.677Z,16.30
2018-03-06T00:26:22.670Z,16.40
2018-03-06T00:27:22.628Z,17.20
2018-03-06T00:28:22.604Z,17.80
2018-03-06T00:29:22.589Z,17.10
2018-03-06T00:30:22.574Z,16.40
2018-03-06T00:31:22.542Z,17.80
2018-03-06T00:32:22.575Z,16.60
2018-03-06T00:33:22.501Z,17.50
2018-03-06T00:34:22.478Z,16.20
2018-03-06T00:35:22.457Z,17.40
2018-03-06T00:36:22.441Z,16.70
2018-03-06T00:37:22.418Z,17.00
2018-03-06T00:38:22.430Z,18.50
2018-03-06T00:39:22.369Z,17.90
2018-03-06T00:40:22.347Z,17.30
2018-03-06T00:41:22.327Z,15.90
2018-03-06T00:42:22.304Z,16.80
2018-03-06T00:43:22.280Z,16.50
2018-03-06T00:44:22.296Z,18.10
2018-03-06T00:45:22.237Z,16.80
2018-03-06T00:46:22.220Z,16.70
2018-03-06T00:47:22.196Z,17.90
2018-03-06T00:48:22.177Z,17.50
2018-03-06T00:49:22.157Z,18.00
2018-03-06T00:50:22.133Z,18.60
2018-03-06T00:51:22.114Z,17.50
2018-03-06T00:52:22.088Z,16.50
2018-03-06T00:53:22.065Z,17.00
2018-03-06T00:54:22.041Z,18.20
2018-03-06T00:55:22.026Z,17.70
2018-03-06T00:56:22.052Z,16.90
2018-03-06T00:57:21.981Z,17.20
2018-03-06T00:58:21.958Z,16.80
2018-03-06T00:59:21.936Z,17.80
2018-03-06T01:00:21.914Z,17.70
2018-03-06T01:01:21.888Z,16.80
2018-03-06T01:02:21.903Z,17.40
2018-03-06T01:03:21.846Z,17.90
2018-03-06T01:04:21.824Z,17.30
2018-03-06T01:05:21.802Z,17.90
2018-03-06T01:06:21.780Z,16.60
2018-03-06T01:07:21.757Z,17.10
2018-03-06T01:08:21.741Z,18.00
2018-03-06T01:09:21.716Z,18.60
2018-03-06T01:10:21.693Z,19.20
2018-03-06T01:11:21.672Z,19.80
2018-03-06T01:12:21.652Z,19.00
2018-03-06T01:13:21.628Z,20.00
2018-03-06T01:14:21.605Z,19.50
2018-03-06T01:15:21.582Z,18.90
2018-03-06T01:16:21.558Z,19.30
2018-03-06T01:17:21.538Z,20.70
2018-03-06T01:18:21.518Z,18.70
2018-03-06T01:19:21.498Z,18.50
2018-03-06T01:20:21.492Z,19.50
2018-03-06T01:21:21.455Z,18.50
2018-03-06T01:22:21.431Z,19.80
2018-03-06T01:23:21.407Z,19.10
2018-03-06T01:24:21.388Z,19.30
2018-03-06T01:25:21.367Z,20.20
2018-03-06T01:26:21.343Z,19.40
2018-03-06T01:27:21.324Z,20.20
2018-03-06T01:28:21.296Z,19.10
2018-03-06T01:29:21.276Z,19.50
2018-03-06T01:30:21.256Z,19.60
2018-03-06T01:31:21.236Z,18.70
2018-03-06T01:32:21.211Z,20.60
2018-03-06T01:33:21.189Z,19.70
2018-03-06T01:34:21.168Z,18.90
2018-03-06T01:35:21.145Z,20.00
2018-03-06T01:36:21.124Z,19.30
2018-03-06T01:37:21.105Z,21.60
2018-03-06T01:38:21.086Z,22.50
2018-03-06T01:39:21.060Z,24.60
2018-03-06T01:40:21.034Z,24.00
2018-03-06T01:41:21.018Z,24.10
2018-03-06T01:42:20.996Z,22.80
2018-03-06T01:43:20.968Z,21.70
2018-03-06T01:44:20.946Z,21.70
2018-03-06T01:45:20.928Z,20.50
2018-03-06T01:46:20.909Z,20.40
2018-03-06T01:47:20.884Z,19.80
2018-03-06T01:48:20.857Z,19.40
2018-03-06T01:49:20.837Z,20.80
2018-03-06T01:50:20.815Z,20.40
2018-03-06T01:51:20.796Z,18.50
2018-03-06T01:52:20.772Z,18.90
2018-03-06T01:53:20.747Z,19.80
2018-03-06T01:54:20.728Z,19.10
2018-03-06T01:55:20.705Z,19.20
2018-03-06T01:56:20.687Z,18.80
2018-03-06T01:57:20.661Z,18.70
2018-03-06T01:58:20.642Z,18.80
2018-03-06T01:59:20.616Z,19.00
2018-03-06T02:00:20.602Z,18.00
2018-03-06T02:01:20.576Z,19.90
2018-03-06T02:02:20.549Z,18.70
2018-03-06T02:03:20.534Z,19.40
2018-03-06T02:04:20.508Z,19.60
2018-03-06T02:05:20.492Z,19.70
2018-03-06T02:06:20.462Z,18.60
2018-03-06T02:07:20.451Z,18.40
2018-03-06T02:08:20.419Z,20.20
2018-03-06T02:09:20.397Z,18.40
2018-03-06T02:10:20.374Z,18.80
2018-03-06T02:11:20.355Z,18.50
2018-03-06T02:12:20.328Z,17.90
2018-03-06T02:13:20.308Z,18.20
2018-03-06T02:14:20.291Z,18.40
2018-03-06T02:15:20.268Z,17.80
2018-03-06T02:16:20.247Z,17.30
2018-03-06T02:17:20.220Z,16.50
2018-03-06T02:18:20.201Z,17.90
2018-03-06T02:19:20.178Z,19.20
2018-03-06T02:20:20.162Z,18.50
2018-03-06T02:21:20.133Z,18.70
2018-03-06T02:22:20.115Z,17.90
2018-03-06T02:23:20.090Z,17.90
2018-03-06T02:24:20.065Z,18.40
2018-03-06T02:25:20.042Z,17.30
2018-03-06T02:26:20.030Z,17.10
2018-03-06T02:27:20.007Z,19.20
2018-03-06T02:28:19.980Z,18.60
2018-03-06T02:29:19.959Z,19.50
2018-03-06T02:30:19.942Z,18.80
2018-03-06T02:31:19.911Z,18.80
2018-03-06T02:32:19.888Z,18.90
2018-03-06T02:33:19.868Z,19.80
2018-03-06T02:34:19.844Z,19.30
2018-03-06T02:35:19.821Z,20.60
2018-03-06T02:36:19.801Z,20.70
2018-03-06T02:37:19.777Z,20.20
2018-03-06T02:38:19.756Z,20.10
2018-03-06T02:39:19.733Z,19.70
2018-03-06T02:40:19.717Z,18.60
2018-03-06T02:41:19.688Z,19.80
2018-03-06T02:42:19.666Z,19.40
2018-03-06T02:43:19.644Z,20.20
2018-03-06T02:44:19.624Z,19.30
2018-03-06T02:45:19.598Z,19.50
2018-03-06T02:46:19.577Z,18.80
2018-03-06T02:47:19.558Z,19.00
2018-03-06T02:48:19.534Z,18.80
2018-03-06T02:49:19.510Z,19.40
2018-03-06T02:50:19.488Z,18.10
2018-03-06T02:51:19.468Z,18.30
2018-03-06T02:52:19.445Z,18.70
2018-03-06T02:53:19.423Z,19.80
2018-03-06T02:54:19.402Z,17.60
2018-03-06T02:55:19.375Z,18.50
2018-03-06T02:56:19.353Z,19.40
2018-03-06T02:57:19.333Z,19.30
2018-03-06T02:58:19.313Z,19.40
2018-03-06T02:59:19.287Z,19.80
2018-03-06T03:00:19.265Z,19.20
2018-03-06T03:01:19.244Z,19.30
2018-03-06T03:02:19.218Z,19.20
2018-03-06T03:03:19.197Z,20.00
2018-03-06T03:04:19.178Z,19.30
2018-03-06T03:05:19.152Z,19.20
2018-03-06T03:06:19.130Z,19.30
2018-03-06T03:07:19.106Z,18.90
2018-03-06T03:08:19.090Z,18.60
2018-03-06T03:09:19.066Z,19.20
2018-03-06T03:10:19.042Z,18.60
2018-03-06T03:11:19.020Z,18.60
2018-03-06T03:12:18.994Z,21.10
2018-03-06T03:13:18.973Z,18.70
2018-03-06T03:14:18.949Z,19.30
2018-03-06T03:15:18.928Z,20.00
2018-03-06T03:16:18.905Z,20.90
2018-03-06T03:17:18.886Z,22.40
2018-03-06T03:18:18.859Z,22.00
2018-03-06T03:19:18.839Z,20.70
2018-03-06T03:20:18.820Z,20.60
2018-03-06T03:21:18.803Z,21.70
2018-03-06T03:22:18.773Z,21.80
2018-03-06T03:23:18.750Z,21.70
2018-03-06T03:24:18.724Z,21.80
2018-03-06T03:25:18.707Z,22.00
2018-03-06T03:26:18.684Z,22.10
2018-03-06T03:27:18.661Z,21.80
2018-03-06T03:28:18.633Z,22.50
2018-03-06T03:29:18.614Z,22.30
2018-03-06T03:30:18.595Z,21.10
2018-03-06T03:31:18.568Z,21.00
2018-03-06T03:32:18.546Z,21.10
2018-03-06T03:33:18.522Z,21.90
2018-03-06T03:34:18.502Z,22.40
2018-03-06T03:35:18.479Z,23.60
2018-03-06T03:36:18.456Z,24.10
2018-03-06T03:37:18.482Z,22.30
2018-03-06T03:38:18.410Z,23.20
2018-03-06T03:39:18.392Z,21.80
2018-03-06T03:40:18.368Z,22.50
2018-03-06T03:41:18.347Z,21.90
2018-03-06T03:42:18.372Z,22.10
2018-03-06T03:43:18.298Z,23.00
2018-03-06T03:44:18.278Z,24.60
2018-03-06T03:45:18.262Z,21.40
2018-03-06T03:46:18.234Z,22.50
2018-03-06T03:47:18.209Z,22.90
2018-03-06T03:48:18.185Z,24.10
2018-03-06T03:49:18.162Z,23.40
2018-03-06T03:50:18.144Z,22.60
2018-03-06T03:51:18.130Z,23.00
2018-03-06T03:52:18.096Z,22.40
2018-03-06T03:53:18.077Z,22.70
2018-03-06T03:54:18.052Z,23.00
2018-03-06T03:55:18.029Z,23.20
2018-03-06T03:56:18.005Z,22.10
2018-03-06T03:57:17.986Z,22.60
2018-03-06T03:58:17.960Z,23.30
2018-03-06T03:59:17.940Z,22.40
2018-03-06T04:00:17.918Z,23.00
2018-03-06T04:01:17.892Z,23.60
2018-03-06T04:02:17.876Z,22.50
2018-03-06T04:03:17.903Z,23.90
2018-03-06T04:04:17.843Z,23.90
2018-03-06T04:05:17.805Z,23.00
2018-03-06T04:06:17.786Z,22.30
2018-03-06T04:07:17.759Z,24.00
2018-03-06T04:08:17.736Z,23.70
2018-03-06T04:09:17.713Z,23.30
2018-03-06T04:10:17.696Z,22.80
2018-03-06T04:11:17.667Z,24.00
2018-03-06T04:12:17.647Z,22.30
2018-03-06T04:13:17.624Z,21.90
2018-03-06T04:14:17.611Z,22.40
2018-03-06T04:15:17.581Z,23.80
2018-03-06T04:16:17.557Z,23.30
2018-03-06T04:17:17.543Z,22.20
2018-03-06T04:18:17.513Z,23.70
2018-03-06T04:19:17.487Z,22.20
2018-03-06T04:20:17.467Z,23.40
2018-03-06T04:21:17.443Z,22.30
2018-03-06T04:22:17.421Z,21.80
2018-03-06T04:23:17.396Z,22.50
2018-03-06T04:24:17.410Z,23.70
2018-03-06T04:25:17.355Z,23.30
2018-03-06T04:26:17.328Z,23.70
2018-03-06T04:27:17.310Z,23.50
2018-03-06T04:28:17.283Z,23.70
2018-03-06T04:29:17.259Z,22.60
2018-03-06T04:30:17.248Z,22.70
2018-03-06T04:31:17.215Z,23.00
2018-03-06T04:32:17.198Z,23.20
2018-03-06T04:33:17.169Z,21.50
2018-03-06T04:34:17.159Z,23.30
2018-03-06T04:35:17.124Z,21.60
2018-03-06T04:36:17.102Z,21.50
2018-03-06T04:37:17.081Z,21.10
2018-03-06T04:38:17.059Z,22.10
2018-03-06T04:39:17.037Z,22.90
2018-03-06T04:40:17.022Z,21.80
2018-03-06T04:41:16.993Z,20.70
2018-03-06T04:42:16.967Z,21.40
2018-03-06T04:43:16.945Z,20.80
2018-03-06T04:44:16.919Z,22.20
2018-03-06T04:45:16.901Z,23.10
2018-03-06T04:46:16.922Z,21.30
2018-03-06T04:47:16.857Z,21.80
2018-03-06T04:48:16.831Z,22.70
2018-03-06T04:49:16.808Z,21.30
2018-03-06T04:50:16.787Z,21.80
2018-03-06T04:51:16.765Z,20.30
2018-03-06T04:52:16.737Z,23.00
2018-03-06T04:53:16.717Z,21.20
2018-03-06T04:54:16.697Z,21.90
2018-03-06T04:55:16.670Z,23.20
2018-03-06T04:56:16.650Z,22.00
2018-03-06T04:57:16.628Z,22.70
2018-03-06T04:58:16.603Z,22.30
2018-03-06T04:59:16.581Z,21.40
2018-03-06T05:00:16.557Z,22.10
2018-03-06T05:01:16.537Z,24.00
2018-03-06T05:02:16.516Z,22.40
2018-03-06T05:03:16.497Z,23.20
2018-03-06T05:04:16.468Z,24.60
2018-03-06T05:05:16.446Z,23.50
2018-03-06T05:06:16.431Z,23.90
2018-03-06T05:07:16.397Z,22.20
2018-03-06T05:08:16.375Z,23.00
2018-03-06T05:09:16.356Z,23.80
2018-03-06T05:10:16.334Z,24.20
2018-03-06T05:11:16.307Z,21.50
2018-03-06T05:12:16.289Z,22.80
2018-03-06T05:13:16.274Z,24.80
2018-03-06T05:14:16.246Z,23.60
2018-03-06T05:15:16.218Z,23.00
2018-03-06T05:16:16.198Z,23.30
2018-03-06T05:17:16.176Z,22.10
2018-03-06T05:18:16.148Z,23.00
2018-03-06T05:19:16.128Z,24.00
2018-03-06T05:20:16.102Z,23.20
2018-03-06T05:21:16.081Z,21.90
2018-03-06T05:22:16.060Z,23.30
2018-03-06T05:23:16.035Z,22.30
2018-03-06T05:24:16.017Z,23.20
2018-03-06T05:25:15.991Z,23.30
2018-03-06T05:26:15.967Z,24.30
2018-03-06T05:27:15.944Z,23.20
2018-03-06T05:28:15.921Z,23.60
2018-03-06T05:29:15.898Z,23.90
2018-03-06T05:30:15.878Z,24.20
2018-03-06T05:31:15.851Z,22.30
2018-03-06T05:32:15.827Z,23.40
2018-03-06T05:33:15.810Z,22.70
2018-03-06T05:34:15.786Z,25.20
2018-03-06T05:35:15.764Z,24.40
2018-03-06T05:36:15.737Z,24.80
2018-03-06T05:37:15.714Z,24.30
2018-03-06T05:38:15.692Z,25.50
2018-03-06T05:39:15.673Z,25.60
2018-03-06T05:40:15.647Z,24.90
2018-03-06T05:41:15.638Z,25.80
2018-03-06T05:42:15.603Z,23.30
2018-03-06T05:43:15.581Z,24.60
2018-03-06T05:44:15.554Z,24.50
2018-03-06T05:45:15.531Z,25.80
2018-03-06T05:46:15.520Z,28.30
2018-03-06T05:47:15.496Z,25.00
2018-03-06T05:48:15.464Z,23.60
2018-03-06T05:49:15.448Z,23.50
2018-03-06T05:50:15.424Z,24.60
2018-03-06T05:51:15.398Z,24.50
2018-03-06T05:52:15.376Z,25.40
2018-03-06T05:53:15.352Z,24.50
2018-03-06T05:54:15.332Z,24.90
2018-03-06T05:55:15.314Z,25.40
2018-03-06T05:56:15.283Z,23.70
2018-03-06T05:57:15.263Z,23.30
2018-03-06T05:58:15.237Z,23.70
2018-03-06T05:59:15.215Z,23.90
2018-03-06T06:00:15.197Z,23.50
2018-03-06T06:01:15.168Z,23.90
2018-03-06T06:02:15.149Z,26.80
2018-03-06T06:03:15.132Z,25.50
2018-03-06T06:04:15.103Z,25.90
2018-03-06T06:05:15.082Z,26.20
2018-03-06T06:06:15.054Z,25.60
2018-03-06T06:07:15.038Z,28.70
2018-03-06T06:08:15.009Z,26.30
2018-03-06T06:09:14.989Z,26.70
2018-03-06T06:10:14.964Z,26.30
2018-03-06T06:11:14.944Z,26.50
2018-03-06T06:12:14.918Z,26.60
2018-03-06T06:13:14.892Z,26.70
2018-03-06T06:14:14.869Z,26.20
2018-03-06T06:15:14.850Z,26.80
2018-03-06T06:16:14.828Z,24.70
2018-03-06T06:17:14.807Z,25.70
2018-03-06T06:18:14.781Z,27.50
2018-03-06T06:19:14.769Z,27.70
2018-03-06T06:20:14.734Z,27.90
2018-03-06T06:21:14.709Z,27.30
2018-03-06T06:22:14.687Z,28.20
2018-03-06T06:23:14.666Z,26.20
2018-03-06T06:24:14.646Z,26.50
2018-03-06T06:25:14.618Z,27.40
2018-03-06T06:26:14.598Z,27.40
2018-03-06T06:27:14.575Z,27.10
2018-03-06T06:28:14.553Z,28.40
2018-03-06T06:29:14.528Z,28.20
2018-03-06T06:30:14.504Z,27.60
2018-03-06T06:31:14.488Z,26.10
2018-03-06T06:32:14.457Z,26.60
2018-03-06T06:33:14.434Z,30.20
2018-03-06T06:34:14.412Z,28.10
2018-03-06T06:35:14.393Z,27.30
2018-03-06T06:36:14.368Z,28.40
2018-03-06T06:37:14.346Z,29.10
2018-03-06T06:38:14.329Z,28.50
2018-03-06T06:39:14.339Z,29.00
2018-03-06T06:40:14.273Z,28.60
2018-03-06T06:41:14.258Z,29.50
2018-03-06T06:42:14.235Z,30.50
2018-03-06T06:43:14.206Z,31.00
2018-03-06T06:44:14.188Z,31.40
2018-03-06T06:45:14.166Z,29.10
2018-03-06T06:46:14.141Z,29.60
2018-03-06T06:47:14.117Z,28.30
2018-03-06T06:48:14.093Z,32.70
2018-03-06T06:49:14.080Z,34.10
2018-03-06T06:50:14.047Z,32.90
2018-03-06T06:51:14.030Z,32.30
2018-03-06T06:52:13.999Z,34.60
2018-03-06T06:53:13.980Z,31.80
2018-03-06T06:54:13.961Z,31.10
2018-03-06T06:55:13.935Z,31.10
2018-03-06T06:56:13.907Z,32.30
2018-03-06T06:57:13.885Z,33.20
2018-03-06T06:58:13.866Z,30.20
2018-03-06T06:59:13.844Z,31.70
2018-03-06T07:00:13.816Z,31.00
2018-03-06T07:01:13.797Z,30.50
2018-03-06T07:02:13.775Z,32.10
2018-03-06T07:03:13.753Z,29.90
2018-03-06T07:04:13.729Z,30.70
2018-03-06T07:05:13.705Z,30.10
2018-03-06T07:06:13.697Z,31.00
2018-03-06T07:07:13.661Z,31.40
2018-03-06T07:08:13.637Z,29.30
2018-03-06T07:09:13.611Z,31.50
2018-03-06T07:10:13.591Z,32.70
2018-03-06T07:11:13.567Z,31.10
2018-03-06T07:12:13.543Z,32.20
2018-03-06T07:13:13.563Z,31.40
2018-03-06T07:14:13.499Z,33.70
2018-03-06T07:15:13.478Z,38.30
2018-03-06T07:16:13.459Z,33.20
2018-03-06T07:17:13.432Z,33.90
2018-03-06T07:18:13.408Z,37.50
2018-03-06T07:19:13.388Z,36.60
2018-03-06T07:20:13.364Z,34.60
2018-03-06T07:21:13.349Z,35.10
2018-03-06T07:22:13.318Z,35.30
2018-03-06T07:23:13.294Z,35.70
2018-03-06T07:24:13.279Z,32.70
2018-03-06T07:25:13.248Z,34.10
2018-03-06T07:26:13.226Z,34.10
2018-03-06T07:27:13.204Z,34.30
2018-03-06T07:28:13.180Z,34.20
2018-03-06T07:29:13.158Z,33.40
2018-03-06T07:30:13.141Z,32.00
2018-03-06T07:31:13.115Z,33.00
2018-03-06T07:32:13.098Z,31.00
2018-03-06T07:33:13.072Z,31.40
2018-03-06T07:34:13.047Z,31.80
2018-03-06T07:35:13.024Z,31.10
2018-03-06T07:36:13.016Z,32.30
2018-03-06T07:37:12.982Z,32.10
2018-03-06T07:38:12.960Z,32.50
2018-03-06T07:39:12.938Z,32.60
2018-03-06T07:40:12.915Z,33.40
2018-03-06T07:41:12.890Z,30.50
2018-03-06T07:42:12.868Z,33.60
2018-03-06T07:43:12.852Z,31.60
2018-03-06T07:44:12.818Z,30.70
2018-03-06T07:45:12.801Z,30.40
2018-03-06T07:46:12.779Z,29.20
2018-03-06T07:47:12.756Z,29.40
2018-03-06T07:48:12.740Z,33.00
2018-03-06T07:49:12.708Z,31.40
2018-03-06T07:50:12.692Z,33.20
2018-03-06T07:51:12.713Z,32.10
2018-03-06T07:52:12.647Z,31.60
2018-03-06T07:53:12.622Z,32.10
2018-03-06T07:54:12.596Z,31.10
2018-03-06T07:55:12.579Z,31.20
2018-03-06T07:56:12.552Z,34.30
2018-03-06T07:57:12.589Z,32.20
2018-03-06T07:58:12.513Z,31.10
2018-03-06T07:59:12.487Z,33.40
2018-03-06T08:00:12.471Z,32.90
2018-03-06T08:01:12.445Z,32.00
2018-03-06T08:02:12.419Z,32.00
2018-03-06T08:03:12.396Z,33.80
2018-03-06T08:04:12.383Z,33.30
2018-03-06T08:05:12.365Z,31.70
2018-03-06T08:06:12.336Z,30.80
2018-03-06T08:07:12.310Z,31.00
2018-03-06T08:08:12.285Z,31.00
2018-03-06T08:09:12.269Z,34.60
2018-03-06T08:10:12.242Z,31.40
2018-03-06T08:11:12.224Z,32.10
2018-03-06T08:12:12.216Z,31.60
2018-03-06T08:13:12.176Z,32.60
2018-03-06T08:14:12.157Z,29.90
2018-03-06T08:15:12.135Z,32.30
2018-03-06T08:16:12.112Z,29.10
2018-03-06T08:17:12.089Z,30.50
2018-03-06T08:18:12.069Z,32.20
2018-03-06T08:19:12.044Z,30.20
2018-03-06T08:20:12.022Z,29.30
2018-03-06T08:21:12.015Z,31.40
2018-03-06T08:22:11.980Z,29.50
2018-03-06T08:23:11.957Z,29.70
2018-03-06T08:24:11.937Z,31.20
2018-03-06T08:25:11.915Z,29.60
2018-03-06T08:26:11.891Z,30.40
2018-03-06T08:27:11.879Z,31.10
2018-03-06T08:28:11.847Z,30.90
2018-03-06T08:29:11.829Z,28.50
2018-03-06T08:30:11.805Z,30.20
2018-03-06T08:31:11.783Z,29.80
2018-03-06T08:32:11.762Z,31.40
2018-03-06T08:33:11.737Z,31.70
2018-03-06T08:34:11.719Z,29.70
2018-03-06T08:35:11.701Z,29.60
2018-03-06T08:36:11.681Z,28.40
2018-03-06T08:37:11.655Z,31.20
2018-03-06T08:38:11.631Z,29.90
2018-03-06T08:39:11.619Z,29.10
2018-03-06T08:40:11.593Z,30.70
2018-03-06T08:41:11.567Z,30.10
2018-03-06T08:42:11.551Z,30.20
2018-03-06T08:43:11.527Z,32.70
2018-03-06T08:44:11.502Z,28.60
2018-03-06T08:45:11.478Z,30.70
2018-03-06T08:46:11.457Z,29.50
2018-03-06T08:47:11.442Z,29.00
2018-03-06T08:48:11.417Z,29.70
2018-03-06T08:49:11.390Z,29.10
2018-03-06T08:50:11.369Z,29.90
2018-03-06T08:51:11.351Z,33.90
2018-03-06T08:52:11.340Z,30.30
2018-03-06T08:53:11.311Z,30.30
2018-03-06T08:54:11.283Z,31.10
2018-03-06T08:55:11.267Z,30.90
2018-03-06T08:56:11.242Z,30.40
2018-03-06T08:57:11.218Z,31.10
2018-03-06T08:58:11.208Z,30.60
2018-03-06T08:59:11.180Z,30.50
2018-03-06T09:00:11.153Z,30.20
2018-03-06T09:01:11.136Z,30.10
2018-03-06T09:02:11.117Z,28.90
2018-03-06T09:03:11.097Z,30.20
2018-03-06T09:04:11.068Z,29.60
2018-03-06T09:05:11.051Z,28.60
2018-03-06T09:06:11.039Z,30.60
2018-03-06T09:07:11.005Z,28.50
2018-03-06T09:08:10.981Z,30.50
2018-03-06T09:09:10.969Z,31.10
2018-03-06T09:10:10.935Z,30.80
2018-03-06T09:11:10.919Z,29.70
2018-03-06T09:12:10.941Z,29.30
2018-03-06T09:13:10.875Z,28.90
2018-03-06T09:14:10.852Z,27.80
2018-03-06T09:15:10.834Z,30.10
2018-03-06T09:16:10.813Z,29.30
2018-03-06T09:17:10.793Z,29.10
2018-03-06T09:18:10.768Z,29.70
2018-03-06T09:19:10.748Z,30.00
2018-03-06T09:20:10.730Z,30.60
2018-03-06T09:21:10.711Z,29.70
2018-03-06T09:22:10.683Z,29.60
2018-03-06T09:23:10.672Z,31.50
2018-03-06T09:24:10.642Z,29.90
2018-03-06T09:25:10.619Z,28.80
2018-03-06T09:26:10.606Z,29.30
2018-03-06T09:27:10.589Z,31.50
2018-03-06T09:28:10.559Z,29.20
2018-03-06T09:29:10.546Z,30.90
2018-03-06T09:30:10.514Z,29.70
2018-03-06T09:31:10.501Z,30.70
2018-03-06T09:32:10.476Z,29.60
2018-03-06T09:33:10.456Z,29.50
2018-03-06T09:34:10.438Z,29.00
2018-03-06T09:35:10.412Z,29.60
2018-03-06T09:36:10.392Z,30.30
2018-03-06T09:37:10.367Z,30.50
2018-03-06T09:38:10.351Z,31.00
2018-03-06T09:39:10.327Z,30.70
2018-03-06T09:40:10.308Z,31.10
2018-03-06T09:41:10.296Z,29.70
2018-03-06T09:42:10.270Z,30.20
2018-03-06T09:43:10.244Z,30.60
2018-03-06T09:44:10.227Z,29.50
2018-03-06T09:45:10.205Z,29.90
2018-03-06T09:46:10.183Z,28.80
2018-03-06T09:47:10.167Z,29.40
2018-03-06T09:48:10.138Z,28.90
2018-03-06T09:49:10.120Z,29.30
2018-03-06T09:50:10.101Z,30.10
2018-03-06T09:51:10.078Z,31.00
2018-03-06T09:52:10.058Z,30.50
2018-03-06T09:53:10.041Z,30.60
2018-03-06T09:54:10.016Z,28.30
2018-03-06T09:55:10.002Z,29.20
2018-03-06T09:56:09.978Z,28.00
2018-03-06T09:57:09.958Z,29.60
2018-03-06T09:58:09.936Z,27.80
2018-03-06T09:59:09.913Z,28.60
2018-03-06T10:00:09.904Z,28.40
2018-03-06T10:01:09.870Z,29.80
2018-03-06T10:02:09.853Z,27.60
2018-03-06T10:03:09.841Z,28.70
2018-03-06T10:04:09.816Z,27.10
2018-03-06T10:05:09.800Z,28.60
2018-03-06T10:06:09.771Z,27.50
2018-03-06T10:07:09.755Z,27.80
2018-03-06T10:08:09.749Z,29.60
2018-03-06T10:09:09.716Z,29.30
2018-03-06T10:10:09.699Z,30.70
2018-03-06T10:11:09.675Z,28.80
2018-03-06T10:12:09.652Z,28.90
2018-03-06T10:13:09.629Z,29.40
2018-03-06T10:14:09.609Z,27.90
2018-03-06T10:15:09.593Z,29.20
2018-03-06T10:16:09.569Z,29.30
2018-03-06T10:17:09.548Z,28.20
2018-03-06T10:18:09.536Z,27.80
2018-03-06T10:19:09.512Z,28.60
2018-03-06T10:20:09.488Z,30.10
2018-03-06T10:21:09.470Z,28.70
2018-03-06T10:22:09.459Z,28.90
2018-03-06T10:23:09.430Z,29.30
2018-03-06T10:24:09.407Z,28.30
2018-03-06T10:25:09.389Z,29.30
2018-03-06T10:26:09.370Z,30.00
2018-03-06T10:27:09.351Z,28.90
2018-03-06T10:28:09.373Z,29.60
2018-03-06T10:29:09.312Z,29.40
2018-03-06T10:30:09.293Z,27.70
2018-03-06T10:31:09.291Z,30.90
2018-03-06T10:32:09.256Z,30.10
2018-03-06T10:33:09.236Z,28.50
2018-03-06T10:34:09.221Z,29.90
2018-03-06T10:35:09.196Z,27.90
2018-03-06T10:36:09.171Z,29.00
2018-03-06T10:37:09.160Z,29.80
2018-03-06T10:38:09.141Z,28.50
2018-03-06T10:39:09.117Z,28.60
2018-03-06T10:40:09.096Z,28.90
2018-03-06T10:41:09.078Z,29.30
2018-03-06T10:42:09.058Z,29.60
2018-03-06T10:43:09.034Z,27.40
2018-03-06T10:44:09.018Z,27.80
2018-03-06T10:45:08.997Z,28.30
2018-03-06T10:46:08.977Z,27.60
2018-03-06T10:47:08.962Z,26.70
2018-03-06T10:48:08.936Z,26.60
2018-03-06T10:49:08.919Z,27.30
2018-03-06T10:50:08.911Z,27.30
2018-03-06T10:51:08.882Z,27.50
2018-03-06T10:52:08.864Z,28.80
2018-03-06T10:53:08.846Z,26.70
2018-03-06T10:54:08.826Z,29.30
2018-03-06T10:55:08.803Z,27.30
2018-03-06T10:56:08.782Z,30.20
2018-03-06T10:57:08.761Z,29.60
2018-03-06T10:58:08.742Z,30.50
2018-03-06T10:59:08.724Z,28.40
2018-03-06T11:00:08.707Z,27.30
2018-03-06T11:01:08.708Z,27.40
2018-03-06T11:02:08.705Z,27.30
2018-03-06T11:03:08.646Z,27.60
2018-03-06T11:04:08.626Z,26.10
2018-03-06T11:05:08.611Z,26.90
2018-03-06T11:06:08.587Z,28.40
2018-03-06T11:07:08.578Z,27.30
2018-03-06T11:08:08.576Z,27.70
2018-03-06T11:09:08.533Z,28.40
2018-03-06T11:10:08.511Z,27.20
2018-03-06T11:11:08.498Z,27.60
2018-03-06T11:12:08.472Z,26.50
2018-03-06T11:13:08.458Z,26.80
2018-03-06T11:14:08.439Z,28.70
2018-03-06T11:15:08.418Z,28.40
2018-03-06T11:16:08.405Z,28.40
2018-03-06T11:17:08.383Z,29.40
2018-03-06T11:18:08.362Z,28.80
2018-03-06T11:19:08.345Z,29.50
2018-03-06T11:20:08.322Z,29.70
2018-03-06T11:21:08.308Z,28.80
2018-03-06T11:22:08.284Z,30.50
2018-03-06T11:23:08.279Z,29.20
2018-03-06T11:24:08.250Z,29.30
2018-03-06T11:25:08.229Z,30.00
2018-03-06T11:26:08.215Z,29.70
2018-03-06T11:27:08.193Z,29.20
2018-03-06T11:28:08.176Z,29.80
2018-03-06T11:29:08.158Z,29.10
2018-03-06T11:30:08.137Z,30.00
2018-03-06T11:31:08.118Z,30.40
2018-03-06T11:32:08.097Z,32.90
2018-03-06T11:33:08.086Z,29.70
2018-03-06T11:34:08.066Z,29.90
2018-03-06T11:35:08.045Z,29.50
2018-03-06T11:36:08.032Z,28.90
2018-03-06T11:37:08.009Z,30.50
2018-03-06T11:38:07.987Z,29.50
2018-03-06T11:39:07.968Z,28.40
2018-03-06T11:40:07.959Z,29.30
2018-03-06T11:41:07.937Z,29.10
2018-03-06T11:42:07.908Z,26.80
2018-03-06T11:43:07.899Z,26.60
2018-03-06T11:44:07.872Z,26.40
2018-03-06T11:45:07.852Z,25.40
2018-03-06T11:46:07.836Z,25.80
2018-03-06T11:47:07.820Z,23.80
2018-03-06T11:48:07.800Z,26.00
2018-03-06T11:49:07.777Z,26.20
2018-03-06T11:50:07.762Z,26.00
2018-03-06T11:51:07.741Z,27.60
2018-03-06T11:52:07.720Z,26.90
2018-03-06T11:53:07.728Z,25.80
2018-03-06T11:54:07.694Z,27.70
2018-03-06T11:55:07.671Z,25.50
2018-03-06T11:56:07.647Z,26.40
2018-03-06T11:57:07.635Z,25.20
2018-03-06T11:58:07.614Z,24.60
2018-03-06T11:59:07.594Z,26.30
2018-03-06T12:00:07.578Z,25.60
2018-03-06T12:01:07.561Z,24.90
2018-03-06T12:02:07.596Z,26.00
2018-03-06T12:03:07.522Z,25.10
2018-03-06T12:04:07.504Z,26.20
2018-03-06T12:05:07.491Z,24.90
2018-03-06T12:06:07.475Z,25.10
2018-03-06T12:07:07.487Z,25.60
2018-03-06T12:08:07.427Z,24.70
2018-03-06T12:09:07.442Z,25.30
2018-03-06T12:10:07.426Z,25.50
2018-03-06T12:11:07.375Z,26.50
2018-03-06T12:12:07.352Z,26.50
2018-03-06T12:14:07.323Z,24.10
2018-03-06T12:15:07.297Z,25.10
2018-03-06T12:16:07.277Z,26.20
2018-03-06T12:17:07.257Z,24.50
2018-03-06T12:18:07.249Z,25.80
2018-03-06T12:19:07.224Z,26.10
2018-03-06T12:20:07.206Z,25.30
2018-03-06T12:21:07.184Z,25.30
2018-03-06T12:22:07.167Z,25.50
2018-03-06T12:23:07.147Z,25.80
2018-03-06T12:24:07.130Z,26.30
2018-03-06T12:25:07.115Z,26.20
2018-03-06T12:26:07.097Z,24.60
2018-03-06T12:27:07.074Z,25.50
2018-03-06T12:28:07.067Z,26.10
2018-03-06T12:29:07.039Z,26.00
2018-03-06T12:30:07.022Z,24.90
2018-03-06T12:31:07.004Z,25.40
2018-03-06T12:32:06.980Z,26.20
2018-03-06T12:33:06.964Z,26.80
2018-03-06T12:34:06.949Z,26.40
2018-03-06T12:35:06.940Z,26.20
2018-03-06T12:36:06.907Z,25.20
2018-03-06T12:37:06.897Z,26.40
2018-03-06T12:38:06.873Z,27.50
2018-03-06T12:39:06.855Z,27.00
2018-03-06T12:40:06.837Z,29.20
2018-03-06T12:41:06.816Z,26.60
2018-03-06T12:42:06.803Z,26.80
2018-03-06T12:43:06.779Z,27.10
2018-03-06T12:44:06.761Z,26.90
2018-03-06T12:45:06.749Z,27.00
2018-03-06T12:46:06.722Z,27.60
2018-03-06T12:47:06.704Z,26.40
2018-03-06T12:48:06.688Z,28.20
2018-03-06T12:49:06.671Z,27.80
2018-03-06T12:50:06.652Z,26.50
2018-03-06T12:51:06.636Z,27.10
2018-03-06T12:52:06.627Z,27.10
2018-03-06T12:53:06.595Z,28.30